createdAt,value
2019-04-01T00:01:34.791Z,19.10
2019-04-01T00:04:04.181Z,18.95
2019-04-01T00:06:33.518Z,18.90
2019-04-01T00:09:02.926Z,19.48
2019-04-01T00:11:32.637Z,20.32
2019-04-01T00:14:01.979Z,19.57
2019-04-01T00:16:31.382Z,19.92
2019-04-01T00:19:03.225Z,19.70
2019-04-01T00:21:32.826Z,20.85
2019-04-01T00:24:02.167Z,20.55
2019-04-01T00:26:31.503Z,20.40
2019-04-01T00:29:00.841Z,19.98
2019-04-01T00:31:30.165Z,20.50
2019-04-01T00:33:59.512Z,19.75
2019-04-01T00:36:28.853Z,20.68
2019-04-01T00:38:58.262Z,20.68
2019-04-01T00:41:27.870Z,19.87
2019-04-01T00:43:58.865Z,19.95
2019-04-01T00:46:28.563Z,18.85
2019-04-01T00:48:57.909Z,20.15
2019-04-01T00:51:27.311Z,18.52
2019-04-01T00:53:56.654Z,20.20
2019-04-01T00:56:25.978Z,19.23
2019-04-01T00:58:55.321Z,19.85
2019-04-01T01:01:24.672Z,19.55
2019-04-01T01:03:55.059Z,19.80
2019-04-01T01:06:25.455Z,19.15
2019-04-01T01:08:54.798Z,19.62
2019-04-01T01:11:24.121Z,19.10
2019-04-01T01:13:53.468Z,20.27
2019-04-01T01:16:22.794Z,18.92
2019-04-01T01:18:52.138Z,19.20
2019-04-01T01:21:21.682Z,19.10
2019-04-01T01:23:51.032Z,19.37
2019-04-01T01:26:20.358Z,18.65
2019-04-01T01:28:49.703Z,18.23
2019-04-01T01:31:19.030Z,18.92
2019-04-01T01:33:48.371Z,17.75
2019-04-01T01:36:17.706Z,17.80
2019-04-01T01:38:47.058Z,18.52
2019-04-01T01:41:16.390Z,18.57
2019-04-01T01:43:45.732Z,17.67
2019-04-01T01:46:16.035Z,17.95
2019-04-01T01:48:45.386Z,18.20
2019-04-01T01:51:14.812Z,18.05
2019-04-01T01:53:44.136Z,18.20
2019-04-01T01:56:13.490Z,17.60
2019-04-01T01:58:43.882Z,17.50
2019-04-01T02:01:13.233Z,17.60
2019-04-01T02:03:42.558Z,18.57
2019-04-01T02:06:11.913Z,17.40
2019-04-01T02:08:41.250Z,17.15
2019-04-01T02:11:10.608Z,16.45
2019-04-01T02:13:40.017Z,16.90
2019-04-01T02:16:09.443Z,16.85
2019-04-01T02:18:38.782Z,16.37
2019-04-01T02:21:08.117Z,15.83
2019-04-01T02:23:37.483Z,16.50
2019-04-01T02:26:06.895Z,15.65
2019-04-01T02:28:36.234Z,15.55
2019-04-01T02:31:05.579Z,16.42
2019-04-01T02:33:34.908Z,16.30
2019-04-01T02:36:04.259Z,15.43
2019-04-01T02:38:33.588Z,16.15
2019-04-01T02:41:02.928Z,15.35
2019-04-01T02:43:32.255Z,15.03
2019-04-01T02:46:01.606Z,15.32
2019-04-01T02:48:30.942Z,15.88
2019-04-01T02:51:00.362Z,15.28
2019-04-01T02:53:29.691Z,15.00
2019-04-01T02:55:59.041Z,15.25
2019-04-01T02:58:28.377Z,14.65
2019-04-01T03:00:57.730Z,15.63
2019-04-01T03:03:27.125Z,15.85
2019-04-01T03:05:56.471Z,15.20
2019-04-01T03:08:25.835Z,15.90
2019-04-01T03:10:55.205Z,15.25
2019-04-01T03:13:24.587Z,13.58
2019-04-01T03:15:53.948Z,14.55
2019-04-01T03:18:23.290Z,14.58
2019-04-01T03:20:52.640Z,15.08
2019-04-01T03:23:21.968Z,14.25
2019-04-01T03:25:51.390Z,14.18
2019-04-01T03:28:20.734Z,15.05
2019-04-01T03:30:50.093Z,13.85
2019-04-01T03:33:19.434Z,14.90
2019-04-01T03:35:48.846Z,13.40
2019-04-01T03:38:18.178Z,14.83
2019-04-01T03:40:47.523Z,13.32
2019-04-01T03:43:16.855Z,13.83
2019-04-01T03:45:46.207Z,14.45
2019-04-01T03:48:15.603Z,13.85
2019-04-01T03:50:44.945Z,13.72
2019-04-01T03:53:14.351Z,14.00
2019-04-01T03:55:43.768Z,13.55
2019-04-01T03:58:13.268Z,13.90
2019-04-01T04:00:42.610Z,13.53
2019-04-01T04:03:11.931Z,13.55
2019-04-01T04:05:41.283Z,13.58
2019-04-01T04:08:10.610Z,12.95
2019-04-01T04:10:39.962Z,13.65
2019-04-01T04:13:09.291Z,14.13
2019-04-01T04:15:38.679Z,13.55
2019-04-01T04:18:08.009Z,13.15
2019-04-01T04:20:37.346Z,13.68
2019-04-01T04:23:06.719Z,13.55
2019-04-01T04:25:36.100Z,13.50
2019-04-01T04:28:05.513Z,14.33
2019-04-01T04:30:34.838Z,13.65
2019-04-01T04:33:04.254Z,14.28
2019-04-01T04:35:33.957Z,14.63
2019-04-01T04:38:03.421Z,13.93
2019-04-01T04:40:32.798Z,14.10
2019-04-01T04:43:02.147Z,13.35
2019-04-01T04:45:31.502Z,13.50
2019-04-01T04:48:00.910Z,13.35
2019-04-01T04:50:30.234Z,12.90
2019-04-01T04:52:59.588Z,13.70
2019-04-01T04:55:28.917Z,13.53
2019-04-01T04:57:58.261Z,13.03
2019-04-01T05:00:27.668Z,13.32
2019-04-01T05:02:57.015Z,14.07
2019-04-01T05:05:26.342Z,13.70
2019-04-01T05:07:55.795Z,13.38
2019-04-01T05:10:25.127Z,13.60
2019-04-01T05:12:54.468Z,13.22
2019-04-01T05:15:23.804Z,12.75
2019-04-01T05:17:53.158Z,13.00
2019-04-01T05:20:22.498Z,12.85
2019-04-01T05:22:51.987Z,12.90
2019-04-01T05:25:21.383Z,12.53
2019-04-01T05:27:51.977Z,12.37
2019-04-01T05:30:21.311Z,12.50
2019-04-01T05:32:51.399Z,12.18
2019-04-01T05:35:20.726Z,12.70
2019-04-01T05:37:50.163Z,12.00
2019-04-01T05:40:19.490Z,11.70
2019-04-01T05:42:48.843Z,11.80
2019-04-01T05:45:18.191Z,11.93
2019-04-01T05:47:49.238Z,11.88
2019-04-01T05:50:18.570Z,11.15
2019-04-01T05:52:48.719Z,11.50
2019-04-01T05:55:18.041Z,11.10
2019-04-01T05:57:47.542Z,10.68
2019-04-01T06:00:21.718Z,10.65
2019-04-01T06:02:51.053Z,10.58
2019-04-01T06:05:20.399Z,10.75
2019-04-01T06:07:49.810Z,10.65
2019-04-01T06:10:19.223Z,9.90
2019-04-01T06:12:48.998Z,9.85
2019-04-01T06:15:18.338Z,9.95
2019-04-01T06:17:47.673Z,10.53
2019-04-01T06:20:17.083Z,10.20
2019-04-01T06:22:46.397Z,9.55
2019-04-01T06:25:15.753Z,9.63
2019-04-01T06:27:45.069Z,9.50
2019-04-01T06:30:14.476Z,8.83
2019-04-01T06:32:43.875Z,9.60
2019-04-01T06:35:13.355Z,9.68
2019-04-01T06:37:42.754Z,9.43
2019-04-01T06:40:12.340Z,9.15
2019-04-01T06:42:41.661Z,8.65
2019-04-01T06:45:11.435Z,8.53
2019-04-01T06:47:40.766Z,9.05
2019-04-01T06:50:10.946Z,8.68
2019-04-01T06:52:40.331Z,8.63
2019-04-01T06:55:09.918Z,9.65
2019-04-01T06:57:39.428Z,9.08
2019-04-01T07:00:09.263Z,9.40
2019-04-01T07:02:38.727Z,9.18
2019-04-01T07:05:08.138Z,8.85
2019-04-01T07:07:37.839Z,8.90
2019-04-01T07:10:07.318Z,8.93
2019-04-01T07:12:36.646Z,8.73
2019-04-01T07:15:07.690Z,8.30
2019-04-01T07:17:37.046Z,8.20
2019-04-01T07:20:08.684Z,8.28
2019-04-01T07:22:37.596Z,8.98
2019-04-01T07:25:07.100Z,9.00
2019-04-01T07:27:36.495Z,8.38
2019-04-01T07:30:06.595Z,9.53
2019-04-01T07:32:35.993Z,9.05
2019-04-01T07:35:06.079Z,8.60
2019-04-01T07:37:35.405Z,8.45
2019-04-01T07:40:06.584Z,8.33
2019-04-01T07:42:35.908Z,8.83
2019-04-01T07:45:07.454Z,8.70
2019-04-01T07:47:36.842Z,8.85
2019-04-01T07:50:07.717Z,8.25
2019-04-01T07:52:37.111Z,8.28
2019-04-01T07:55:07.357Z,8.75
2019-04-01T07:57:36.906Z,9.43
2019-04-01T08:00:07.078Z,9.05
2019-04-01T08:02:37.510Z,9.75
2019-04-01T08:05:08.054Z,8.95
2019-04-01T08:07:37.390Z,9.35
2019-04-01T08:10:07.455Z,9.25
2019-04-01T08:12:36.890Z,9.60
2019-04-01T08:15:09.611Z,9.83
2019-04-01T08:17:38.951Z,9.40
2019-04-01T08:20:08.514Z,10.20
2019-04-01T08:22:37.914Z,9.63
2019-04-01T08:25:07.584Z,9.45
2019-04-01T08:27:36.909Z,9.15
2019-04-01T08:30:09.945Z,9.38
2019-04-01T08:32:39.534Z,9.80
2019-04-01T08:35:09.194Z,9.65
2019-04-01T08:37:40.522Z,9.48
2019-04-01T08:40:10.262Z,10.18
2019-04-01T08:42:39.664Z,9.95
2019-04-01T08:45:10.038Z,10.68
2019-04-01T08:47:39.379Z,10.85
2019-04-01T08:50:09.360Z,10.90
2019-04-01T08:52:38.843Z,10.15
2019-04-01T08:55:08.720Z,11.10
2019-04-01T08:57:38.115Z,11.73
2019-04-01T09:00:09.001Z,10.95
2019-04-01T09:02:38.425Z,11.73
2019-04-01T09:05:08.083Z,10.95
2019-04-01T09:07:37.431Z,11.50
2019-04-01T09:10:07.193Z,10.32
2019-04-01T09:12:36.626Z,10.08
2019-04-01T09:15:06.482Z,11.38
2019-04-01T09:17:36.083Z,10.88
2019-04-01T09:20:05.712Z,11.70
2019-04-01T09:22:35.115Z,10.60
2019-04-01T09:25:05.861Z,10.20
2019-04-01T09:27:35.200Z,10.70
2019-04-01T09:30:06.766Z,11.22
2019-04-01T09:32:36.178Z,10.48
2019-04-01T09:35:08.557Z,10.82
2019-04-01T09:37:37.909Z,10.32
2019-04-01T09:40:08.442Z,10.23
2019-04-01T09:42:37.851Z,10.28
2019-04-01T09:45:08.326Z,10.08
2019-04-01T09:47:38.494Z,10.28
2019-04-01T09:50:08.725Z,11.28
2019-04-01T09:52:38.187Z,9.75
2019-04-01T09:55:07.751Z,11.50
2019-04-01T09:57:37.103Z,10.95
2019-04-01T10:00:09.055Z,10.38
2019-04-01T10:02:38.466Z,11.03
2019-04-01T10:05:08.236Z,10.20
2019-04-01T10:07:37.600Z,11.18
2019-04-01T10:10:08.589Z,10.68
2019-04-01T10:12:38.002Z,10.50
2019-04-01T10:15:08.366Z,10.10
2019-04-01T10:17:37.712Z,11.25
2019-04-01T10:20:08.173Z,10.60
2019-04-01T10:22:37.582Z,10.88
2019-04-01T10:25:08.218Z,10.70
2019-04-01T10:27:38.735Z,10.98
2019-04-01T10:30:10.021Z,10.00
2019-04-01T10:32:39.439Z,10.20
2019-04-01T10:35:09.495Z,10.48
2019-04-01T10:37:39.018Z,10.60
2019-04-01T10:40:08.720Z,11.12
2019-04-01T10:42:38.125Z,11.45
2019-04-01T10:45:08.327Z,11.03
2019-04-01T10:47:37.691Z,10.58
2019-04-01T10:50:08.934Z,10.53
2019-04-01T10:52:38.526Z,9.58
2019-04-01T10:55:09.021Z,10.98
2019-04-01T10:57:38.660Z,10.72
2019-04-01T11:00:10.100Z,10.45
2019-04-01T11:02:40.538Z,10.70
2019-04-01T11:05:10.311Z,11.55
2019-04-01T11:07:39.685Z,11.35
2019-04-01T11:10:11.353Z,10.65
2019-04-01T11:12:40.154Z,10.93
2019-04-01T11:15:10.027Z,10.88
2019-04-01T11:17:39.521Z,11.22
2019-04-01T11:20:10.118Z,10.60
2019-04-01T11:22:39.461Z,11.12
2019-04-01T11:25:09.230Z,10.32
2019-04-01T11:27:38.573Z,11.18
2019-04-01T11:30:08.543Z,10.35
2019-04-01T11:32:38.120Z,11.43
2019-04-01T11:35:08.230Z,10.95
2019-04-01T11:37:38.611Z,12.23
2019-04-01T11:40:11.293Z,10.88
2019-04-01T11:42:41.002Z,12.28
2019-04-01T11:45:11.582Z,11.57
2019-04-01T11:47:41.046Z,11.95
2019-04-01T11:50:10.625Z,10.70
2019-04-01T11:52:40.005Z,11.00
2019-04-01T11:55:09.767Z,10.95
2019-04-01T11:57:40.532Z,11.90
2019-04-01T12:00:17.498Z,11.08
2019-04-01T12:02:46.829Z,10.58
2019-04-01T12:05:16.242Z,11.63
2019-04-01T12:07:45.569Z,12.45
2019-04-01T12:10:14.977Z,11.33
2019-04-01T12:12:44.315Z,11.73
2019-04-01T12:15:15.191Z,11.08
2019-04-01T12:17:44.518Z,11.43
2019-04-01T12:20:14.134Z,11.05
2019-04-01T12:22:45.620Z,12.15
2019-04-01T12:25:14.547Z,11.00
2019-04-01T12:27:45.154Z,11.57
2019-04-01T12:30:14.759Z,11.80
2019-04-01T12:32:44.090Z,11.85
2019-04-01T12:35:13.666Z,11.63
2019-04-01T12:37:43.002Z,12.15
2019-04-01T12:40:12.973Z,11.85
2019-04-01T12:42:42.720Z,12.15
2019-04-01T12:45:13.405Z,12.25
2019-04-01T12:47:43.331Z,11.30
2019-04-01T12:50:14.105Z,12.28
2019-04-01T12:52:43.434Z,12.00
2019-04-01T12:55:13.117Z,11.65
2019-04-01T12:57:42.447Z,11.10
2019-04-01T13:00:13.870Z,11.48
2019-04-01T13:02:43.198Z,9.80
2019-04-01T13:05:12.790Z,12.07
2019-04-01T13:07:42.183Z,12.28
2019-04-01T13:10:11.770Z,12.45
2019-04-01T13:12:41.095Z,12.10
2019-04-01T13:15:12.472Z,10.10
2019-04-01T13:17:42.002Z,11.95
2019-04-01T13:20:11.704Z,11.38
2019-04-01T13:22:41.022Z,10.85
2019-04-01T13:25:10.617Z,11.57
2019-04-01T13:27:39.951Z,11.68
2019-04-01T13:30:10.348Z,11.00
2019-04-01T13:32:39.799Z,10.85
2019-04-01T13:35:09.215Z,11.55
2019-04-01T13:37:38.542Z,10.90
2019-04-01T13:40:09.803Z,11.33
2019-04-01T13:42:39.138Z,11.45
2019-04-01T13:45:08.609Z,11.30
2019-04-01T13:47:41.120Z,10.63
2019-04-01T13:50:09.136Z,10.72
2019-04-01T13:52:38.463Z,12.00
2019-04-01T13:55:07.947Z,10.93
2019-04-01T13:57:37.346Z,10.68
2019-04-01T14:00:09.549Z,11.45
2019-04-01T14:02:38.947Z,9.85
2019-04-01T14:05:08.562Z,11.05
2019-04-01T14:07:37.966Z,11.12
2019-04-01T14:10:09.323Z,10.82
2019-04-01T14:12:38.675Z,11.18
2019-04-01T14:15:09.559Z,11.53
2019-04-01T14:17:39.150Z,10.65
2019-04-01T14:20:08.740Z,10.20
2019-04-01T14:22:39.039Z,10.23
2019-04-01T14:25:09.452Z,10.40
2019-04-01T14:27:39.515Z,10.72
2019-04-01T14:30:09.435Z,10.35
2019-04-01T14:32:39.730Z,11.12
2019-04-01T14:35:09.425Z,10.70
2019-04-01T14:37:39.647Z,10.08
2019-04-01T14:40:09.824Z,11.40
2019-04-01T14:42:39.854Z,10.58
2019-04-01T14:45:09.815Z,12.03
2019-04-01T14:47:56.126Z,11.18
2019-04-01T14:50:10.433Z,10.30
2019-04-01T14:52:40.983Z,10.08
2019-04-01T14:55:10.796Z,10.63
2019-04-01T14:57:40.147Z,10.43
2019-04-01T15:00:12.251Z,10.80
2019-04-01T15:02:41.657Z,9.95
2019-04-01T15:05:11.233Z,9.75
2019-04-01T15:07:40.575Z,10.45
2019-04-01T15:10:10.558Z,9.88
2019-04-01T15:12:39.955Z,10.08
2019-04-01T15:15:10.425Z,10.43
2019-04-01T15:17:39.762Z,9.30
2019-04-01T15:20:09.530Z,9.58
2019-04-01T15:22:38.872Z,9.60
2019-04-01T15:25:08.602Z,9.68
2019-04-01T15:27:37.962Z,10.40
2019-04-01T15:30:08.935Z,9.55
2019-04-01T15:32:38.266Z,10.32
2019-04-01T15:35:08.082Z,9.35
2019-04-01T15:37:37.414Z,9.60
2019-04-01T15:40:08.982Z,9.05
2019-04-01T15:42:38.326Z,9.23
2019-04-01T15:45:07.890Z,9.18
2019-04-01T15:47:38.274Z,8.83
2019-04-01T15:50:09.384Z,8.80
2019-04-01T15:52:39.063Z,9.70
2019-04-01T15:55:08.630Z,9.28
2019-04-01T15:57:37.960Z,8.98
2019-04-01T16:00:08.126Z,8.83
2019-04-01T16:02:37.617Z,8.80
2019-04-01T16:05:08.082Z,9.05
2019-04-01T16:07:37.418Z,9.18
2019-04-01T16:10:06.977Z,9.63
2019-04-01T16:12:36.321Z,9.15
2019-04-01T16:15:09.041Z,8.85
2019-04-01T16:17:38.642Z,9.48
2019-04-01T16:20:08.221Z,9.80
2019-04-01T16:22:37.630Z,9.38
2019-04-01T16:25:08.094Z,9.30
2019-04-01T16:27:37.434Z,9.13
2019-04-01T16:30:08.389Z,8.83
2019-04-01T16:32:37.794Z,9.50
2019-04-01T16:35:07.522Z,9.95
2019-04-01T16:37:37.042Z,9.65
2019-04-01T16:40:07.602Z,10.10
2019-04-01T16:42:36.949Z,10.70
2019-04-01T16:45:08.169Z,9.73
2019-04-01T16:47:37.637Z,9.55
2019-04-01T16:50:10.471Z,9.40
2019-04-01T16:52:39.802Z,9.28
2019-04-01T16:55:10.261Z,9.18
2019-04-01T16:57:39.594Z,9.33
2019-04-01T17:00:13.955Z,9.83
2019-04-01T17:02:41.466Z,8.80
2019-04-01T17:05:11.531Z,9.10
2019-04-01T17:07:41.173Z,9.98
2019-04-01T17:10:13.880Z,9.20
2019-04-01T17:12:43.215Z,9.18
2019-04-01T17:15:12.615Z,8.35
2019-04-01T17:17:42.941Z,8.48
2019-04-01T17:20:12.575Z,8.25
2019-04-01T17:22:42.173Z,7.87
2019-04-01T17:25:11.658Z,8.40
2019-04-01T17:27:40.989Z,7.85
2019-04-01T17:30:12.274Z,8.30
2019-04-01T17:32:41.877Z,7.85
2019-04-01T17:35:13.093Z,7.65
2019-04-01T17:37:42.696Z,7.90
2019-04-01T17:40:12.355Z,8.40
2019-04-01T17:42:41.751Z,7.62
2019-04-01T17:45:16.715Z,7.33
2019-04-01T17:47:46.037Z,7.65
2019-04-01T17:50:15.377Z,7.65
2019-04-01T17:52:44.702Z,7.53
2019-04-01T17:55:14.114Z,6.90
2019-04-01T17:57:43.435Z,6.80
2019-04-01T18:00:18.482Z,7.55
2019-04-01T18:02:47.803Z,7.08
2019-04-01T18:05:17.307Z,6.62
2019-04-01T18:07:46.765Z,7.35
2019-04-01T18:10:16.249Z,7.08
2019-04-01T18:12:45.562Z,6.85
2019-04-01T18:15:16.157Z,7.55
2019-04-01T18:17:45.647Z,7.70
2019-04-01T18:20:15.148Z,7.60
2019-04-01T18:22:44.571Z,6.25
2019-04-01T18:25:14.449Z,6.58
2019-04-01T18:27:44.369Z,6.50
2019-04-01T18:30:14.621Z,6.90
2019-04-01T18:32:43.998Z,7.20
2019-04-01T18:35:14.377Z,6.30
2019-04-01T18:37:43.699Z,6.70
2019-04-01T18:40:13.394Z,5.87
2019-04-01T18:42:42.786Z,6.90
2019-04-01T18:45:12.504Z,7.00
2019-04-01T18:47:41.828Z,6.90
2019-04-01T18:50:11.226Z,5.97
2019-04-01T18:52:40.555Z,6.25
2019-04-01T18:55:10.292Z,7.17
2019-04-01T18:57:39.682Z,7.37
2019-04-01T19:00:10.083Z,7.20
2019-04-01T19:02:39.405Z,6.55
2019-04-01T19:05:10.036Z,6.17
2019-04-01T19:07:39.574Z,6.80
2019-04-01T19:10:09.172Z,6.70
2019-04-01T19:12:38.562Z,7.20
2019-04-01T19:15:10.169Z,6.97
2019-04-01T19:17:39.917Z,8.03
2019-04-01T19:20:11.209Z,8.08
2019-04-01T19:22:40.852Z,7.10
2019-04-01T19:25:10.488Z,8.03
2019-04-01T19:27:41.023Z,8.20
2019-04-01T19:30:11.007Z,8.25
2019-04-01T19:32:40.343Z,7.25
2019-04-01T19:35:09.922Z,7.30
2019-04-01T19:37:39.242Z,7.60
2019-04-01T19:40:09.117Z,7.08
2019-04-01T19:42:39.642Z,7.95
2019-04-01T19:45:11.970Z,7.83
2019-04-01T19:47:41.623Z,7.20
2019-04-01T19:50:11.497Z,7.50
2019-04-01T19:52:40.821Z,6.67
2019-04-01T19:55:10.230Z,8.70
2019-04-01T19:57:39.558Z,8.03
2019-04-01T20:00:09.946Z,7.95
2019-04-01T20:02:39.271Z,7.42
2019-04-01T20:05:08.849Z,7.78
2019-04-01T20:07:38.173Z,7.70
2019-04-01T20:10:07.956Z,7.83
2019-04-01T20:12:37.275Z,7.55
2019-04-01T20:15:12.209Z,7.65
2019-04-01T20:17:42.931Z,7.28
2019-04-01T20:20:14.607Z,7.62
2019-04-01T20:22:43.947Z,7.33
2019-04-01T20:25:13.617Z,8.13
2019-04-01T20:27:44.124Z,7.87
2019-04-01T20:30:14.725Z,7.15
2019-04-01T20:32:44.062Z,8.13
2019-04-01T20:35:23.203Z,7.83
2019-04-01T20:37:44.885Z,7.87
2019-04-01T20:40:15.034Z,7.50
2019-04-01T20:42:46.321Z,8.03
2019-04-01T20:45:15.864Z,8.03
2019-04-01T20:47:45.217Z,8.65
2019-04-01T20:50:15.401Z,8.98
2019-04-01T20:52:44.729Z,8.30
2019-04-01T20:55:14.882Z,8.60
2019-04-01T20:57:45.979Z,8.60
2019-04-01T21:00:15.883Z,8.30
2019-04-01T21:02:45.303Z,8.33
2019-04-01T21:05:14.878Z,8.65
2019-04-01T21:07:44.217Z,9.03
2019-04-01T21:10:14.146Z,8.93
2019-04-01T21:12:44.907Z,8.35
2019-04-01T21:15:14.734Z,8.58
2019-04-01T21:17:44.076Z,8.48
2019-04-01T21:20:13.694Z,8.55
2019-04-01T21:22:44.118Z,8.75
2019-04-01T21:25:13.690Z,8.98
2019-04-01T21:27:43.036Z,8.58
2019-04-01T21:30:12.697Z,9.58
2019-04-01T21:32:42.037Z,9.15
2019-04-01T21:35:11.498Z,9.15
2019-04-01T21:37:41.809Z,8.98
2019-04-01T21:40:11.269Z,9.40
2019-04-01T21:42:43.051Z,8.48
2019-04-01T21:45:11.986Z,8.98
2019-04-01T21:47:41.673Z,9.33
2019-04-01T21:50:11.381Z,9.25
2019-04-01T21:52:40.791Z,9.40
2019-04-01T21:55:10.250Z,9.78
2019-04-01T21:57:39.598Z,10.32
2019-04-01T22:00:14.250Z,9.05
2019-04-01T22:02:45.701Z,9.65
2019-04-01T22:05:16.234Z,9.63
2019-04-01T22:07:45.641Z,9.80
2019-04-01T22:10:15.731Z,9.68
2019-04-01T22:12:45.074Z,10.08
2019-04-01T22:15:14.402Z,9.93
2019-04-01T22:17:43.749Z,9.48
2019-04-01T22:20:13.211Z,9.35
2019-04-01T22:22:42.554Z,10.13
2019-04-01T22:25:11.950Z,10.10
2019-04-01T22:27:41.300Z,9.75
2019-04-01T22:30:11.657Z,9.50
2019-04-01T22:32:41.214Z,9.93
2019-04-01T22:35:11.554Z,9.30
2019-04-01T22:37:40.887Z,9.70
2019-04-01T22:40:10.578Z,9.48
2019-04-01T22:42:39.906Z,9.15
2019-04-01T22:45:09.406Z,10.25
2019-04-01T22:47:38.754Z,10.00
2019-04-01T22:50:10.031Z,9.55
2019-04-01T22:52:42.036Z,9.93
2019-04-01T22:55:11.096Z,9.93
2019-04-01T22:57:40.430Z,9.35
2019-04-01T23:00:10.132Z,9.58
2019-04-01T23:02:42.244Z,10.00
2019-04-01T23:05:11.766Z,10.08
2019-04-01T23:07:42.780Z,10.20
2019-04-01T23:10:12.248Z,9.63
2019-04-01T23:12:41.573Z,11.00
2019-04-01T23:15:11.438Z,9.85
2019-04-01T23:17:40.779Z,9.65
2019-04-01T23:20:10.373Z,9.83
2019-04-01T23:22:39.720Z,10.43
2019-04-01T23:25:09.187Z,10.15
2019-04-01T23:27:38.529Z,9.80
2019-04-01T23:30:09.821Z,10.03
2019-04-01T23:32:41.636Z,10.48
2019-04-01T23:35:12.262Z,10.38
2019-04-01T23:37:41.466Z,10.25
2019-04-01T23:40:11.164Z,10.93
2019-04-01T23:42:40.586Z,10.60
2019-04-01T23:45:10.950Z,10.23
2019-04-01T23:47:40.298Z,10.08
2019-04-01T23:50:09.994Z,10.50
2019-04-01T23:52:39.379Z,10.55
2019-04-01T23:55:09.799Z,10.98
2019-04-01T23:57:39.142Z,10.58
